Time;durP1;ratioP1;P1;durP2;ratioP2;P2;SDS_P1;SDS_P2;PMS_P1;PMS_P2;Temp;Humidity;BMP_temperature;BMP_pressure;BME280_temperature;BME280_humidity;BME280_pressure;Samples;Min_cycle;Max_cycle;Signal;HPM_P1;HPM_P2
2022/04/19 00:01:21;;;;;;;13.65;10.40;;;8.30;99.90;;;;;;4953545;28;20110;-57
2022/04/19 00:03:47;;;;;;;11.05;7.63;;;8.10;99.90;;;;;;4953891;28;20051;-51
2022/04/19 00:06:13;;;;;;;13.05;8.43;;;8.00;99.90;;;;;;4954643;29;20046;-53
2022/04/19 00:08:38;;;;;;;13.18;8.55;;;7.90;99.90;;;;;;4952429;28;20043;-56
2022/04/19 00:11:04;;;;;;;14.32;9.30;;;7.90;99.90;;;;;;4953728;28;20040;-52
2022/04/19 00:13:30;;;;;;;11.63;8.30;;;7.90;99.90;;;;;;4953555;28;20047;-55
2022/04/19 00:15:57;;;;;;;13.50;9.45;;;7.80;99.90;;;;;;4951524;28;20058;-55
2022/04/19 00:18:23;;;;;;;17.52;9.15;;;7.70;99.90;;;;;;4953941;28;20054;-53
2022/04/19 00:20:49;;;;;;;16.95;9.43;;;7.70;99.90;;;;;;4953934;28;20102;-52
2022/04/19 00:23:15;;;;;;;15.05;9.02;;;7.70;99.90;;;;;;4951260;28;20498;-52
2022/04/19 00:25:42;;;;;;;15.85;9.90;;;7.70;99.90;;;;;;4936147;28;20147;-53
2022/04/19 00:28:08;;;;;;;15.13;9.38;;;7.70;99.90;;;;;;4953895;28;20039;-54
2022/04/19 00:30:34;;;;;;;13.15;9.35;;;7.70;99.90;;;;;;4953655;29;20040;-55
2022/04/19 00:33:00;;;;;;;14.88;10.13;;;7.70;99.90;;;;;;4950797;28;20039;-53
2022/04/19 00:35:28;;;;;;;13.85;9.90;;;7.70;99.90;;;;;;4936062;29;20043;-52
2022/04/19 00:37:53;;;;;;;14.35;10.25;;;7.60;99.90;;;;;;4953725;28;20043;-52
2022/04/19 00:40:19;;;;;;;15.27;10.15;;;7.60;99.90;;;;;;4951366;28;20453;-54
2022/04/19 00:42:44;;;;;;;14.88;10.20;;;7.60;99.90;;;;;;4952786;28;20074;-57
2022/04/19 00:45:10;;;;;;;17.88;10.93;;;7.70;99.90;;;;;;4953246;28;20449;-55
2022/04/19 00:47:38;;;;;;;14.95;10.63;;;7.70;99.90;;;;;;4951693;28;20074;-55
2022/04/19 00:50:05;;;;;;;14.82;10.48;;;7.70;99.90;;;;;;4952908;28;20040;-53
2022/04/19 00:52:37;;;;;;;15.23;10.52;;;7.70;99.90;;;;;;4953374;28;20035;-53
2022/04/19 00:55:04;;;;;;;17.73;11.50;;;7.80;99.90;;;;;;4953397;29;20122;-52
2022/04/19 00:57:32;;;;;;;16.00;11.10;;;7.80;99.90;;;;;;4952028;28;20118;-52
2022/04/19 00:59:58;;;;;;;15.90;11.45;;;7.70;99.90;;;;;;4952691;28;20094;-53
2022/04/19 01:02:25;;;;;;;16.80;11.05;;;7.60;99.90;;;;;;4953037;28;20426;-57
2022/04/19 01:04:52;;;;;;;17.02;10.48;;;7.50;99.90;;;;;;4953644;28;20039;-51
2022/04/19 01:07:19;;;;;;;14.95;10.43;;;7.30;99.90;;;;;;4952904;28;20027;-52
2022/04/19 01:09:48;;;;;;;12.40;9.35;;;7.00;99.90;;;;;;4953232;28;20501;-51
2022/04/19 01:15:04;;;;;;;15.00;10.45;;;7.00;99.90;;;;;;4954086;28;20035;-54
2022/04/19 01:17:29;;;;;;;14.75;10.73;;;7.00;99.90;;;;;;4957212;28;20062;-55
2022/04/19 01:19:55;;;;;;;15.48;10.35;;;6.90;99.90;;;;;;4952911;28;20040;-52
2022/04/19 01:22:21;;;;;;;19.30;11.38;;;6.70;99.90;;;;;;4950714;28;20039;-52
2022/04/19 01:24:46;;;;;;;16.73;11.40;;;6.70;99.90;;;;;;4952022;28;20043;-52
2022/04/19 01:27:15;;;;;;;17.80;11.95;;;6.70;99.90;;;;;;4953191;28;20122;-55
2022/04/19 01:29:42;;;;;;;18.30;12.20;;;6.80;99.90;;;;;;4953493;29;20083;-52
2022/04/19 01:32:08;;;;;;;18.08;12.02;;;6.80;99.90;;;;;;4957577;28;20042;-53
2022/04/19 01:34:33;;;;;;;18.55;11.60;;;6.90;99.90;;;;;;4956302;28;20113;-53
2022/04/19 01:36:59;;;;;;;19.13;11.20;;;6.80;99.90;;;;;;4952940;28;20482;-52
2022/04/19 01:42:09;;;;;;;16.35;11.40;;;6.90;99.90;;;;;;4952718;28;20417;-51
2022/04/19 01:44:38;;;;;;;16.55;11.73;;;6.80;99.90;;;;;;4953080;29;20043;-52
2022/04/19 01:47:07;;;;;;;17.52;12.05;;;6.90;99.90;;;;;;4955147;28;20126;-54
2022/04/19 01:49:36;;;;;;;17.55;12.32;;;6.90;99.90;;;;;;4970769;28;20051;-55
2022/04/19 01:52:03;;;;;;;17.58;12.07;;;7.00;99.90;;;;;;4956695;28;20039;-54
2022/04/19 01:54:30;;;;;;;19.35;12.38;;;7.00;99.90;;;;;;4954156;28;20513;-51
2022/04/19 01:56:56;;;;;;;19.08;12.57;;;7.00;99.90;;;;;;4955818;28;20203;-52
2022/04/19 01:59:22;;;;;;;17.67;11.77;;;7.00;99.90;;;;;;4956292;28;20470;-54
2022/04/19 02:01:48;;;;;;;20.63;11.90;;;7.00;99.90;;;;;;4956897;29;20126;-52
2022/04/19 02:04:14;;;;;;;19.15;12.85;;;7.00;99.90;;;;;;4954649;28;20062;-52
2022/04/19 02:06:41;;;;;;;17.63;12.85;;;7.00;99.90;;;;;;4948907;28;20043;-53
2022/04/19 02:09:06;;;;;;;17.75;12.23;;;7.00;99.90;;;;;;4956393;28;20043;-51
2022/04/19 02:11:32;;;;;;;16.48;12.02;;;6.80;99.90;;;;;;4953863;28;20524;-52
2022/04/19 02:13:57;;;;;;;20.45;12.38;;;6.70;99.90;;;;;;4961230;28;20376;-54
2022/04/19 02:16:23;;;;;;;17.83;11.45;;;6.60;99.90;;;;;;4955979;28;20043;-54
2022/04/19 02:18:49;;;;;;;16.27;11.23;;;6.40;99.90;;;;;;4956231;29;20046;-55
2022/04/19 02:21:14;;;;;;;18.92;11.43;;;6.30;99.90;;;;;;4938036;28;20050;-51
2022/04/19 02:23:40;;;;;;;17.42;11.98;;;6.20;99.90;;;;;;4955228;28;20043;-53
2022/04/19 02:26:05;;;;;;;19.08;12.27;;;6.20;99.90;;;;;;4956344;28;20122;-52
2022/04/19 02:28:31;;;;;;;20.00;11.65;;;6.20;99.90;;;;;;4960930;28;20097;-56
2022/04/19 02:30:57;;;;;;;19.88;12.38;;;6.20;99.90;;;;;;4956537;28;20040;-52
2022/04/19 02:33:23;;;;;;;20.63;13.30;;;6.10;99.90;;;;;;4938147;29;20078;-55
2022/04/19 02:35:49;;;;;;;20.85;13.40;;;6.10;99.90;;;;;;4955495;28;20078;-52
2022/04/19 02:38:15;;;;;;;22.10;13.43;;;6.00;99.90;;;;;;4961590;28;20063;-52
2022/04/19 02:40:41;;;;;;;18.83;13.10;;;5.90;99.90;;;;;;4938572;29;20532;-54
2022/04/19 02:43:06;;;;;;;18.20;12.80;;;5.80;99.90;;;;;;4954277;28;20043;-58
2022/04/19 02:45:32;;;;;;;23.35;13.35;;;5.80;99.90;;;;;;4943262;28;20039;-54
2022/04/19 02:48:06;;;;;;;21.45;13.88;;;5.80;99.90;;;;;;4955010;28;20553;-52
2022/04/19 02:50:43;;;;;;;20.65;13.95;;;5.70;99.90;;;;;;4955789;28;20040;-55
2022/04/19 02:53:09;;;;;;;20.83;13.90;;;5.60;99.90;;;;;;4955486;29;20039;-54
2022/04/19 02:55:34;;;;;;;21.77;13.70;;;5.50;99.90;;;;;;4939319;28;20504;-52
2022/04/19 02:58:00;;;;;;;20.48;13.07;;;5.40;99.90;;;;;;4954510;28;20032;-56
2022/04/19 03:00:25;;;;;;;22.55;14.73;;;5.30;99.90;;;;;;4955521;29;20043;-52
2022/04/19 03:02:52;;;;;;;19.73;13.00;;;5.20;99.90;;;;;;4958790;28;20109;-52
2022/04/19 03:05:18;;;;;;;21.35;13.50;;;5.20;99.90;;;;;;4949226;23;20036;-52
2022/04/19 03:07:44;;;;;;;21.50;13.18;;;5.10;99.90;;;;;;4946067;29;20090;-52
2022/04/19 03:10:10;;;;;;;18.65;13.65;;;5.00;99.90;;;;;;4955224;29;20517;-52
2022/04/19 03:12:35;;;;;;;20.10;13.75;;;5.00;99.90;;;;;;4946376;28;20047;-59
2022/04/19 03:15:01;;;;;;;21.92;14.13;;;5.00;99.90;;;;;;4944457;28;20119;-54
2022/04/19 03:17:27;;;;;;;22.98;13.98;;;5.00;99.90;;;;;;4922150;28;20103;-57
2022/04/19 03:19:53;;;;;;;23.30;14.93;;;5.00;99.90;;;;;;4949134;29;20494;-52
2022/04/19 03:22:19;;;;;;;22.02;14.48;;;5.00;99.90;;;;;;4945849;29;20035;-52
2022/04/19 03:27:41;;;;;;;22.90;14.45;;;5.00;99.90;;;;;;4941135;28;20043;-55
2022/04/19 03:30:09;;;;;;;21.83;14.73;;;4.90;99.90;;;;;;4954793;29;20039;-52
2022/04/19 03:32:36;;;;;;;23.67;14.68;;;4.90;99.90;;;;;;4954668;29;20122;-52
2022/04/19 03:35:02;;;;;;;24.52;15.55;;;4.90;99.90;;;;;;4951187;28;20035;-54
2022/04/19 03:37:29;;;;;;;23.25;15.98;;;4.80;99.90;;;;;;4947275;29;20076;-52
2022/04/19 03:39:55;;;;;;;26.15;17.05;;;4.80;99.90;;;;;;4954628;29;20039;-54
2022/04/19 03:42:21;;;;;;;24.92;16.42;;;4.80;99.90;;;;;;4952273;28;20102;-56
2022/04/19 03:44:47;;;;;;;27.85;16.63;;;4.80;99.90;;;;;;4935987;29;20052;-52
2022/04/19 03:47:12;;;;;;;25.50;17.48;;;4.70;99.90;;;;;;4954593;29;20039;-52
2022/04/19 03:49:40;;;;;;;27.65;17.60;;;4.70;99.90;;;;;;4954682;29;20046;-52
2022/04/19 03:52:07;;;;;;;30.00;18.67;;;4.80;99.90;;;;;;4942686;28;20062;-55
2022/04/19 03:54:34;;;;;;;28.33;17.90;;;4.80;99.90;;;;;;4944416;29;20047;-52
2022/04/19 03:57:08;;;;;;;25.95;16.27;;;4.80;99.90;;;;;;4954190;29;20043;-55
2022/04/19 03:59:35;;;;;;;25.08;16.08;;;4.80;99.90;;;;;;4937609;29;20078;-55
2022/04/19 04:02:02;;;;;;;25.42;16.42;;;4.70;99.90;;;;;;4952219;29;20077;-52
2022/04/19 04:04:30;;;;;;;26.10;16.55;;;4.70;99.90;;;;;;4953890;29;20047;-52
2022/04/19 04:07:03;;;;;;;28.08;17.65;;;4.60;99.90;;;;;;4950912;28;20190;-55
2022/04/19 04:09:32;;;;;;;24.83;16.65;;;4.60;99.90;;;;;;4947003;28;20067;-51
2022/04/19 04:12:10;;;;;;;24.20;16.10;;;4.50;99.90;;;;;;4953513;29;20086;-57
2022/04/19 04:14:36;;;;;;;22.05;14.68;;;4.40;99.90;;;;;;4954065;29;20130;-56
2022/04/19 04:17:02;;;;;;;21.58;15.02;;;4.40;99.90;;;;;;4942704;28;20122;-54
2022/04/19 04:19:28;;;;;;;23.88;16.10;;;4.20;99.90;;;;;;4942356;29;20065;-52
2022/04/19 04:21:54;;;;;;;25.48;16.25;;;4.10;99.90;;;;;;4953600;29;20054;-52
2022/04/19 04:24:20;;;;;;;22.88;15.65;;;4.10;99.90;;;;;;4949891;28;20046;-56
2022/04/19 04:26:46;;;;;;;19.70;13.82;;;4.00;99.90;;;;;;4934289;29;20043;-56
2022/04/19 04:29:11;;;;;;;21.73;14.00;;;3.90;99.90;;;;;;4953958;28;20094;-54
2022/04/19 04:31:38;;;;;;;20.38;14.48;;;3.80;99.90;;;;;;4954044;29;20043;-52
2022/04/19 04:34:04;;;;;;;24.92;15.52;;;3.80;99.90;;;;;;4943123;28;20043;-52
2022/04/19 04:36:30;;;;;;;26.90;16.17;;;3.80;99.90;;;;;;4949132;29;20793;-52
2022/04/19 04:38:55;;;;;;;24.63;15.77;;;4.00;99.90;;;;;;4953572;29;20109;-53
2022/04/19 04:41:21;;;;;;;22.90;15.82;;;4.00;99.90;;;;;;4950573;28;20058;-55
2022/04/19 04:43:46;;;;;;;24.50;15.07;;;4.10;99.90;;;;;;4948012;28;20050;-53
2022/04/19 04:51:40;;;;;;;23.38;14.38;;;4.10;99.90;;;;;;4950285;28;20055;-56
2022/04/19 04:54:06;;;;;;;22.67;14.85;;;4.00;99.90;;;;;;4945586;29;20043;-52
2022/04/19 04:56:33;;;;;;;21.33;14.57;;;3.90;99.90;;;;;;4953277;29;20039;-52
2022/04/19 04:58:58;;;;;;;26.83;16.08;;;3.90;99.90;;;;;;4942265;28;20035;-52
2022/04/19 05:01:24;;;;;;;20.75;14.38;;;3.90;99.90;;;;;;4951911;29;20046;-52
2022/04/19 05:03:49;;;;;;;23.13;14.93;;;4.00;99.90;;;;;;4953139;29;20043;-53
2022/04/19 05:06:15;;;;;;;25.25;15.95;;;4.00;99.90;;;;;;4953700;29;20042;-56
2022/04/19 05:08:40;;;;;;;22.75;16.00;;;4.00;99.90;;;;;;4939973;28;20059;-52
2022/04/19 05:11:06;;;;;;;24.13;16.35;;;4.00;99.90;;;;;;4944297;29;20043;-55
2022/04/19 05:13:32;;;;;;;24.58;15.98;;;4.20;99.90;;;;;;4948992;29;20051;-56
2022/04/19 05:16:01;;;;;;;27.10;17.05;;;4.40;99.90;;;;;;4934964;28;20058;-53
2022/04/19 05:18:27;;;;;;;24.92;16.88;;;4.60;99.90;;;;;;4946309;29;20509;-54
2022/04/19 05:20:54;;;;;;;26.92;17.40;;;4.70;99.90;;;;;;4951289;28;20039;-53
2022/04/19 05:23:22;;;;;;;25.52;17.05;;;4.80;99.90;;;;;;4943439;28;20038;-56
2022/04/19 05:25:48;;;;;;;24.67;15.82;;;4.80;99.90;;;;;;4951085;29;20771;-55
2022/04/19 05:28:13;;;;;;;27.77;16.50;;;4.90;99.90;;;;;;4953445;29;20047;-55
2022/04/19 05:30:39;;;;;;;26.65;16.58;;;5.20;99.90;;;;;;4953574;29;20050;-52
2022/04/19 05:33:05;;;;;;;25.35;15.48;;;5.30;99.90;;;;;;4943062;28;20778;-54
2022/04/19 05:35:34;;;;;;;24.17;16.92;;;5.40;99.90;;;;;;4952915;29;20089;-55
2022/04/19 05:37:59;;;;;;;22.55;15.55;;;5.30;99.90;;;;;;4953173;29;20039;-55
2022/04/19 05:40:28;;;;;;;23.20;16.05;;;5.30;99.90;;;;;;4948829;28;20043;-56
2022/04/19 05:42:54;;;;;;;24.23;16.15;;;5.40;99.90;;;;;;4944212;29;20047;-56
2022/04/19 05:45:20;;;;;;;25.80;16.27;;;5.40;99.90;;;;;;4953100;29;20102;-54
2022/04/19 05:47:46;;;;;;;25.98;16.52;;;5.50;99.90;;;;;;4948823;28;21187;-56
2022/04/19 05:50:11;;;;;;;23.05;15.02;;;5.60;99.90;;;;;;4945730;29;20395;-55
2022/04/19 05:52:37;;;;;;;25.73;15.98;;;5.70;99.90;;;;;;4952749;29;20051;-55
2022/04/19 05:55:04;;;;;;;30.52;16.88;;;5.90;99.90;;;;;;4953910;29;20521;-55
2022/04/19 05:57:30;;;;;;;22.95;16.00;;;6.00;99.90;;;;;;4936919;28;20047;-53
2022/04/19 05:59:55;;;;;;;24.35;15.50;;;6.20;99.90;;;;;;4946063;29;20163;-53
2022/04/19 06:05:06;;;;;;;23.92;14.57;;;6.70;99.90;;;;;;4946063;28;20044;-59
2022/04/19 06:07:31;;;;;;;23.25;14.48;;;6.90;99.90;;;;;;4949049;29;20039;-59
2022/04/19 06:09:58;;;;;;;24.17;14.70;;;7.00;99.90;;;;;;4956080;29;20465;-58
2022/04/19 06:12:23;;;;;;;26.40;14.65;;;7.10;99.90;;;;;;4956132;29;20050;-58
2022/04/19 06:14:49;;;;;;;22.08;14.75;;;7.30;99.90;;;;;;4944441;28;20039;-59
2022/04/19 06:17:17;;;;;;;23.23;14.20;;;7.40;99.90;;;;;;4955941;29;20079;-59
2022/04/19 06:19:44;;;;;;;22.02;14.32;;;7.60;99.90;;;;;;4956303;29;20039;-59
2022/04/19 06:22:09;;;;;;;22.42;14.48;;;7.70;99.90;;;;;;4949427;28;20039;-58
2022/04/19 06:24:36;;;;;;;22.55;14.88;;;7.80;99.90;;;;;;4949734;29;20054;-59
2022/04/19 06:27:02;;;;;;;22.35;15.32;;;7.90;99.90;;;;;;4956134;29;20078;-59
2022/04/19 06:29:27;;;;;;;20.15;14.07;;;8.00;99.90;;;;;;4951863;28;20110;-59
2022/04/19 06:31:53;;;;;;;21.63;14.40;;;8.10;99.90;;;;;;4953393;28;20031;-59
2022/04/19 06:34:18;;;;;;;19.58;12.90;;;8.30;99.90;;;;;;4955293;29;20062;-59
2022/04/19 06:36:44;;;;;;;20.15;13.38;;;8.40;99.90;;;;;;4956080;29;20051;-57
2022/04/19 06:39:10;;;;;;;20.10;12.45;;;8.50;99.90;;;;;;4944244;28;20043;-58
2022/04/19 06:41:37;;;;;;;21.58;12.38;;;8.70;99.90;;;;;;4954881;29;20039;-59
2022/04/19 06:44:03;;;;;;;19.23;12.50;;;8.80;99.90;;;;;;4955540;29;20471;-59
2022/04/19 06:46:29;;;;;;;17.40;12.02;;;8.90;99.90;;;;;;4955978;29;20051;-60
2022/04/19 06:48:54;;;;;;;21.23;11.88;;;9.00;99.90;;;;;;4942120;28;20042;-59
2022/04/19 06:51:21;;;;;;;17.30;11.52;;;9.10;99.90;;;;;;4952611;29;20036;-58
2022/04/19 06:53:46;;;;;;;18.67;11.82;;;9.20;99.90;;;;;;4955012;29;20043;-58
2022/04/19 06:56:12;;;;;;;19.45;11.85;;;9.30;99.90;;;;;;4952123;28;20041;-57
2022/04/19 06:58:39;;;;;;;18.38;11.80;;;9.50;99.90;;;;;;4955367;29;20039;-60
2022/04/19 07:01:05;;;;;;;18.63;12.02;;;9.60;99.90;;;;;;4955740;29;20413;-56
2022/04/19 07:03:31;;;;;;;17.95;11.23;;;9.70;99.90;;;;;;4955278;29;20054;-57
2022/04/19 07:05:57;;;;;;;18.17;12.50;;;9.80;99.90;;;;;;4941039;28;20043;-58
2022/04/19 07:08:23;;;;;;;17.85;11.40;;;9.80;99.90;;;;;;4949847;29;20121;-59
2022/04/19 07:10:48;;;;;;;18.98;11.40;;;9.90;99.90;;;;;;4953192;28;20130;-58
2022/04/19 07:13:14;;;;;;;19.42;10.73;;;10.00;99.90;;;;;;4937606;29;20079;-60
2022/04/19 07:15:39;;;;;;;17.27;10.90;;;10.10;99.90;;;;;;4952139;29;20127;-59
2022/04/19 07:18:05;;;;;;;16.35;11.00;;;10.20;99.90;;;;;;4943609;28;20114;-60
2022/04/19 07:28:44;;;;;;;17.85;10.68;;;10.60;99.90;;;;;;4941518;28;20052;-60
2022/04/19 07:31:09;;;;;;;18.00;11.38;;;10.70;99.90;;;;;;4939996;28;20031;-59
2022/04/19 07:33:39;;;;;;;22.48;11.52;;;10.80;99.90;;;;;;4949773;29;20050;-60
2022/04/19 07:36:06;;;;;;;18.67;10.77;;;10.80;99.90;;;;;;4938618;28;20043;-60
2022/04/19 07:38:31;;;;;;;15.23;10.15;;;10.90;99.90;;;;;;4937301;28;20039;-58
2022/04/19 07:40:57;;;;;;;16.42;10.02;;;11.00;99.90;;;;;;4946933;29;20128;-60
2022/04/19 07:43:23;;;;;;;15.23;9.90;;;11.10;99.90;;;;;;4953517;28;20385;-61
2022/04/19 07:45:49;;;;;;;15.75;9.43;;;11.10;99.90;;;;;;4940520;28;20513;-59
2022/04/19 07:48:15;;;;;;;15.07;10.25;;;11.20;99.90;;;;;;4950842;29;20046;-60
2022/04/19 07:50:42;;;;;;;12.82;9.32;;;11.30;99.90;;;;;;4954486;29;20126;-59
2022/04/19 07:53:09;;;;;;;14.90;9.52;;;11.40;99.90;;;;;;4941983;28;20047;-59
2022/04/19 07:55:34;;;;;;;13.13;9.15;;;11.50;99.90;;;;;;4950992;29;20043;-59
2022/04/19 07:58:00;;;;;;;14.55;9.77;;;11.60;99.90;;;;;;4950656;28;20047;-59
2022/04/19 08:00:27;;;;;;;14.60;9.00;;;11.70;99.90;;;;;;4931236;29;20130;-60
2022/04/19 08:02:55;;;;;;;13.43;9.20;;;11.80;99.90;;;;;;4932691;28;20046;-59
2022/04/19 08:05:21;;;;;;;13.02;8.82;;;11.90;99.90;;;;;;4940518;28;20035;-59
2022/04/19 08:07:48;;;;;;;13.77;8.23;;;12.00;99.90;;;;;;4941369;28;20057;-61
2022/04/19 08:10:14;;;;;;;14.48;8.63;;;12.10;99.90;;;;;;4952084;29;20106;-59
2022/04/19 08:12:40;;;;;;;13.02;8.10;;;12.20;99.90;;;;;;4932986;28;20127;-60
2022/04/19 08:15:06;;;;;;;15.15;8.88;;;12.30;99.90;;;;;;4937462;29;20406;-59
2022/04/19 08:17:33;;;;;;;12.90;8.52;;;12.40;99.90;;;;;;4950600;28;20466;-59
2022/04/19 08:19:58;;;;;;;14.02;8.55;;;12.50;99.90;;;;;;4952038;29;20039;-59
2022/04/19 08:22:25;;;;;;;12.68;8.55;;;12.60;99.90;;;;;;4952644;29;20430;-58
2022/04/19 08:24:51;;;;;;;17.77;9.15;;;12.70;99.90;;;;;;4953109;29;20035;-60
2022/04/19 08:27:17;;;;;;;15.95;8.85;;;12.80;99.90;;;;;;4945664;28;20042;-59
2022/04/19 08:29:43;;;;;;;13.82;8.68;;;12.90;99.90;;;;;;4952073;28;20054;-59
2022/04/19 08:32:09;;;;;;;11.98;8.18;;;12.90;99.90;;;;;;4954163;29;20031;-59
2022/04/19 08:34:36;;;;;;;12.07;8.55;;;13.00;99.90;;;;;;4909823;29;20038;-60
2022/04/19 08:37:02;;;;;;;12.82;8.23;;;13.10;99.90;;;;;;4925021;29;20486;-60
2022/04/19 08:39:28;;;;;;;16.00;8.80;;;13.20;99.90;;;;;;4944416;29;20131;-60
2022/04/19 08:41:54;;;;;;;14.90;9.27;;;13.20;99.90;;;;;;4954266;29;20039;-60
2022/04/19 08:44:20;;;;;;;16.55;9.90;;;13.30;99.90;;;;;;4943494;28;20035;-60
2022/04/19 08:46:46;;;;;;;15.18;9.75;;;13.30;99.90;;;;;;4943736;29;20123;-59
2022/04/19 08:49:12;;;;;;;13.18;8.95;;;13.50;99.90;;;;;;4942459;28;20122;-59
2022/04/19 08:51:40;;;;;;;11.20;7.93;;;13.50;99.90;;;;;;4941554;28;20622;-60
2022/04/19 08:59:38;;;;;;;12.82;8.43;;;13.60;99.90;;;;;;4946039;29;20048;-59
2022/04/19 09:02:05;;;;;;;13.63;8.63;;;13.50;99.90;;;;;;4953415;29;20043;-60
2022/04/19 09:04:30;;;;;;;15.77;7.80;;;13.60;99.90;;;;;;4998567;23;20048;-56
2022/04/19 09:06:58;;;;;;;14.68;7.93;;;13.60;99.90;;;;;;4952070;28;20093;-56
2022/04/19 09:09:26;;;;;;;10.60;7.40;;;13.60;99.90;;;;;;4957306;28;20438;-60
2022/04/19 09:11:54;;;;;;;11.30;7.85;;;13.60;99.90;;;;;;4970195;28;20509;-60
2022/04/19 09:14:22;;;;;;;12.30;7.07;;;13.60;99.90;;;;;;4971810;28;20393;-60
2022/04/19 09:16:53;;;;;;;8.98;5.90;;;13.60;99.90;;;;;;4960939;28;20040;-60
2022/04/19 09:19:30;;;;;;;9.35;5.70;;;13.70;99.90;;;;;;4958868;28;20035;-59
2022/04/19 09:21:57;;;;;;;10.93;5.78;;;13.80;99.90;;;;;;4961094;28;20083;-59
2022/04/19 09:24:23;;;;;;;9.55;5.18;;;13.80;99.80;;;;;;4950980;28;20075;-57
2022/04/19 09:26:49;;;;;;;7.80;5.32;;;13.90;99.90;;;;;;4954225;28;20054;-54
2022/04/19 09:29:17;;;;;;;7.53;4.60;;;14.00;99.30;;;;;;4952982;28;20035;-56
2022/04/19 09:31:42;;;;;;;8.82;4.50;;;14.00;98.80;;;;;;4953125;29;20089;-56
2022/04/19 09:34:08;;;;;;;5.55;3.70;;;14.10;98.50;;;;;;4951565;28;20031;-56
2022/04/19 09:36:34;;;;;;;5.00;4.00;;;14.20;94.80;;;;;;4952705;28;20039;-53
2022/04/19 09:38:59;;;;;;;6.15;4.15;;;14.20;96.50;;;;;;4953242;28;20068;-57
2022/04/19 09:41:30;;;;;;;8.10;4.10;;;14.20;94.50;;;;;;4950460;28;20054;-57
2022/04/19 09:44:10;;;;;;;6.95;4.63;;;14.30;94.80;;;;;;4937663;28;20412;-53
2022/04/19 09:46:39;;;;;;;5.13;3.63;;;14.30;97.60;;;;;;4964249;28;20109;-57
2022/04/19 09:49:06;;;;;;;5.78;3.67;;;14.40;95.80;;;;;;4972109;28;20050;-56
2022/04/19 09:51:35;;;;;;;4.80;3.60;;;14.50;94.20;;;;;;4961847;28;20036;-55
2022/04/19 09:54:01;;;;;;;5.82;3.17;;;14.50;91.00;;;;;;4960239;28;20139;-58
2022/04/19 09:56:34;;;;;;;4.85;3.28;;;14.60;90.00;;;;;;4950628;28;20126;-54
2022/04/19 09:59:02;;;;;;;7.75;3.22;;;14.60;69.80;;;;;;4962665;28;20036;-53
2022/04/19 10:09:33;;;;;;;12.48;5.30;;;14.80;86.90;;;;;;4961536;28;20047;-57
2022/04/19 10:11:59;;;;;;;9.45;5.75;;;14.90;91.00;;;;;;4966562;28;20100;-53
2022/04/19 10:14:25;;;;;;;7.65;5.25;;;14.90;93.70;;;;;;4951967;28;20110;-55
2022/04/19 10:16:53;;;;;;;6.45;4.70;;;15.00;94.30;;;;;;4954238;28;20494;-55
2022/04/19 10:19:19;;;;;;;5.32;3.63;;;15.10;91.60;;;;;;4955545;28;20027;-57
2022/04/19 10:21:45;;;;;;;5.18;3.72;;;15.10;77.00;;;;;;4956295;29;20058;-56
2022/04/19 10:24:13;;;;;;;8.27;3.97;;;15.10;75.80;;;;;;4963146;28;20043;-56
2022/04/19 10:26:47;;;;;;;5.32;3.58;;;15.20;85.80;;;;;;4962057;28;20049;-56
2022/04/19 10:29:30;;;;;;;7.53;3.25;;;15.20;77.80;;;;;;4974072;28;20035;-55
2022/04/19 10:32:08;;;;;;;5.22;3.15;;;15.20;70.20;;;;;;4957489;28;20046;-59
2022/04/19 10:34:38;;;;;;;5.22;3.25;;;15.20;66.20;;;;;;4967546;28;20628;-54
2022/04/19 10:37:19;;;;;;;5.82;3.35;;;15.30;74.30;;;;;;4970738;28;20397;-53
2022/04/19 10:39:47;;;;;;;9.70;3.90;;;15.40;76.00;;;;;;4963104;28;20042;-56
2022/04/19 10:42:37;;;;;;;6.45;3.67;;;15.50;83.20;;;;;;4952797;28;20047;-60
2022/04/19 10:45:19;;;;;;;6.95;3.83;;;15.60;75.90;;;;;;4974743;28;20043;-60
2022/04/19 10:47:54;;;;;;;6.80;3.72;;;15.70;88.70;;;;;;4970190;28;20511;-59
2022/04/19 10:50:30;;;;;;;7.30;4.30;;;15.70;71.50;;;;;;4954972;28;20399;-60
2022/04/19 10:53:03;;;;;;;4.43;3.22;;;15.80;82.90;;;;;;4955047;28;20043;-60
2022/04/19 10:55:37;;;;;;;6.05;3.25;;;15.90;83.00;;;;;;4955336;29;20039;-57
2022/04/19 10:58:06;;;;;;;5.38;3.17;;;15.90;69.70;;;;;;4954575;28;21073;-55
2022/04/19 11:00:34;;;;;;;5.32;2.95;;;15.80;69.40;;;;;;4955570;28;20119;-60
2022/04/19 11:03:02;;;;;;;5.57;4.05;;;15.80;61.90;;;;;;4954901;28;20556;-60
2022/04/19 11:05:46;;;;;;;6.60;3.30;;;15.90;75.30;;;;;;4954852;28;20122;-59
2022/04/19 11:08:29;;;;;;;8.10;3.20;;;16.00;63.30;;;;;;4954847;28;20050;-60
2022/04/19 11:10:58;;;;;;;4.65;3.20;;;16.10;67.20;;;;;;4955299;28;20047;-54
2022/04/19 11:13:32;;;;;;;5.22;3.42;;;16.00;68.60;;;;;;4952898;28;20039;-59
2022/04/19 11:16:06;;;;;;;7.95;3.40;;;16.10;83.70;;;;;;4960127;28;20050;-59
2022/04/19 11:18:39;;;;;;;5.00;3.70;;;16.40;83.90;;;;;;4954283;28;20035;-60
2022/04/19 11:21:13;;;;;;;4.63;3.53;;;16.40;89.70;;;;;;4951897;28;20043;-57
2022/04/19 11:23:43;;;;;;;7.30;3.83;;;16.50;80.90;;;;;;4954433;28;20050;-60
2022/04/19 11:26:30;;;;;;;4.25;2.90;;;16.40;72.50;;;;;;4954725;28;20046;-60
2022/04/19 11:29:11;;;;;;;5.97;3.05;;;16.30;71.20;;;;;;4954782;29;20079;-60
2022/04/19 11:31:56;;;;;;;6.28;3.00;;;16.50;72.70;;;;;;4952252;28;20043;-59
2022/04/19 11:34:22;;;;;;;3.80;2.95;;;16.40;71.30;;;;;;4953352;28;20039;-60
2022/04/19 11:36:48;;;;;;;5.05;2.88;;;16.30;70.10;;;;;;4954123;28;20513;-59
2022/04/19 11:47:59;;;;;;;;;;;16.80;72.90;;;;;;4954994;29;20688;-60
2022/04/19 11:50:25;;;;;;;5.90;3.28;;;16.90;77.70;;;;;;4955985;28;19919;-60
2022/04/19 11:52:51;;;;;;;5.47;3.10;;;16.90;71.60;;;;;;4953894;28;20035;-60
2022/04/19 11:55:17;;;;;;;7.95;3.38;;;17.00;81.60;;;;;;4956321;28;20039;-59
2022/04/19 11:57:43;;;;;;;7.32;2.70;;;17.20;83.60;;;;;;4956264;28;20027;-60
2022/04/19 12:00:09;;;;;;;5.80;2.70;;;17.20;78.80;;;;;;4954360;28;20474;-59
2022/04/19 12:02:36;;;;;;;4.43;2.88;;;17.00;67.00;;;;;;4936242;28;20051;-59
2022/04/19 12:05:03;;;;;;;5.32;2.70;;;17.10;71.10;;;;;;4953640;28;20035;-60
2022/04/19 12:07:28;;;;;;;6.45;2.70;;;17.10;72.40;;;;;;4954012;28;20143;-60
2022/04/19 12:09:57;;;;;;;6.88;2.95;;;17.00;65.10;;;;;;4954304;28;20099;-60
2022/04/19 12:12:23;;;;;;;6.90;3.13;;;17.20;70.40;;;;;;4955103;28;20126;-57
2022/04/19 12:14:52;;;;;;;4.22;3.20;;;17.40;78.90;;;;;;4953010;28;20111;-59
2022/04/19 12:17:22;;;;;;;5.80;3.45;;;17.40;66.40;;;;;;4954066;28;20043;-59
2022/04/19 12:19:59;;;;;;;5.53;3.40;;;17.60;82.90;;;;;;4951552;28;20082;-60
2022/04/19 12:22:24;;;;;;;6.55;3.15;;;17.60;79.30;;;;;;4953415;28;20047;-60
2022/04/19 12:24:55;;;;;;;5.82;3.60;;;17.80;76.10;;;;;;4953529;28;20494;-56
2022/04/19 12:27:28;;;;;;;4.70;3.20;;;17.60;68.10;;;;;;4951442;28;20486;-56
2022/04/19 12:30:11;;;;;;;6.75;3.67;;;17.70;70.30;;;;;;4955317;28;20040;-59
2022/04/19 12:32:53;;;;;;;6.15;3.75;;;17.70;72.90;;;;;;4956384;28;20040;-57
2022/04/19 12:35:33;;;;;;;5.63;3.70;;;17.60;61.90;;;;;;4936661;29;20046;-54
2022/04/19 12:38:18;;;;;;;6.72;4.10;;;17.60;65.60;;;;;;4950991;28;20042;-57
2022/04/19 12:40:44;;;;;;;6.63;3.80;;;17.90;76.50;;;;;;4943920;28;20055;-57
2022/04/19 12:43:14;;;;;;;8.43;3.70;;;17.90;66.80;;;;;;4952069;28;20187;-56
2022/04/19 12:45:40;;;;;;;6.38;3.38;;;18.10;74.90;;;;;;4943013;28;20046;-54
2022/04/19 12:48:07;;;;;;;9.73;3.50;;;18.20;70.30;;;;;;4952643;28;20039;-59
2022/04/19 12:50:34;;;;;;;7.38;2.92;;;18.30;77.30;;;;;;4950126;28;20105;-55
2022/04/19 12:53:00;;;;;;;5.53;2.97;;;18.40;72.60;;;;;;4956155;28;20034;-57
2022/04/19 12:55:29;;;;;;;3.65;2.80;;;18.30;62.60;;;;;;4972879;28;20405;-57
2022/04/19 12:58:08;;;;;;;9.35;3.25;;;18.20;61.00;;;;;;4966776;28;20042;-59
2022/04/19 13:00:35;;;;;;;4.00;3.10;;;18.00;58.00;;;;;;4960458;28;20051;-55
2022/04/19 13:03:01;;;;;;;4.97;3.50;;;18.10;62.20;;;;;;4955880;28;20046;-56
2022/04/19 13:12:16;;;;;;;4.57;3.30;;;18.10;59.50;;;;;;4953049;28;20032;-57
2022/04/19 13:13:40;;;;;;;4.60;3.10;;;18.70;66.60;;;;;;4953130;28;20043;-58
2022/04/19 13:16:06;;;;;;;4.55;3.60;;;18.60;65.40;;;;;;4972642;28;20058;-57
2022/04/19 13:18:31;;;;;;;7.32;3.40;;;18.90;63.80;;;;;;4964109;28;20134;-58
2022/04/19 13:20:57;;;;;;;9.68;3.60;;;19.00;65.10;;;;;;4960569;28;20039;-57
2022/04/19 13:23:22;;;;;;;9.88;3.90;;;19.00;62.00;;;;;;4967336;28;20452;-59
2022/04/19 13:25:48;;;;;;;6.68;3.70;;;18.90;57.50;;;;;;4972624;28;20579;-57
2022/04/19 13:28:14;;;;;;;6.05;4.00;;;18.70;58.50;;;;;;4950760;28;20529;-59
2022/04/19 13:30:40;;;;;;;4.93;3.80;;;18.80;59.60;;;;;;4941894;28;20035;-60
2022/04/19 13:33:06;;;;;;;5.43;3.80;;;19.00;61.70;;;;;;4957702;28;20122;-60
2022/04/19 13:35:31;;;;;;;7.55;3.70;;;19.20;60.40;;;;;;4954774;28;20057;-60